createdAt,value
2022-12-17T00:00:51.280Z,101966.91
2022-12-17T00:03:34.847Z,101965.25
2022-12-17T00:06:20.537Z,101984.19
2022-12-17T00:09:05.915Z,101979.50
2022-12-17T00:11:51.069Z,101973.47
2022-12-17T00:14:37.508Z,101975.94
2022-12-17T00:17:38.915Z,101971.25
2022-12-17T00:20:25.236Z,101971.91
2022-12-17T00:23:17.394Z,101963.00
2022-12-17T00:26:02.848Z,101946.22
2022-12-17T00:28:47.914Z,101892.63
2022-12-17T00:31:32.694Z,101966.16
2022-12-17T00:34:19.436Z,101958.09
2022-12-17T00:37:04.994Z,101973.25
2022-12-17T00:39:53.563Z,101958.97
2022-12-17T00:42:44.702Z,101967.69
2022-12-17T00:45:30.346Z,101971.06
2022-12-17T00:48:15.794Z,101963.19
2022-12-17T00:51:02.815Z,101966.31
2022-12-17T00:53:48.402Z,101970.59
2022-12-17T00:56:34.104Z,101963.00
2022-12-17T00:59:19.453Z,101969.81
2022-12-17T01:02:01.313Z,101979.03
2022-12-17T01:04:46.952Z,101980.19
2022-12-17T01:07:33.731Z,101980.34
2022-12-17T01:10:19.184Z,101980.94
2022-12-17T01:13:04.833Z,101979.72
2022-12-17T01:15:50.501Z,101999.59
2022-12-17T01:18:37.438Z,101993.81
2022-12-17T01:21:23.040Z,101940.44
2022-12-17T01:24:09.964Z,101886.22
2022-12-17T01:26:55.139Z,101960.00
2022-12-17T01:29:41.641Z,101971.34
2022-12-17T01:32:27.081Z,101953.88
2022-12-17T01:35:12.640Z,101949.94
2022-12-17T01:37:58.195Z,101953.50
2022-12-17T01:40:44.959Z,101971.03
2022-12-17T01:43:39.424Z,101972.44
2022-12-17T01:46:24.932Z,101990.81
2022-12-17T01:49:10.310Z,101989.31
2022-12-17T01:51:55.751Z,102002.66
2022-12-17T01:54:41.426Z,102008.56
2022-12-17T01:57:28.611Z,102003.66
2022-12-17T02:00:18.768Z,102012.78
2022-12-17T02:03:04.488Z,102030.16
2022-12-17T02:05:57.490Z,102015.22
2022-12-17T02:08:51.508Z,101951.44
2022-12-17T02:11:47.503Z,102006.97
2022-12-17T02:14:42.383Z,102006.06
2022-12-17T02:17:31.986Z,102010.97
2022-12-17T02:20:31.122Z,102011.44
2022-12-17T02:23:28.799Z,102019.50
2022-12-17T02:26:27.295Z,102019.66
2022-12-17T02:29:15.996Z,101955.13
2022-12-17T02:32:04.519Z,102012.59
2022-12-17T02:34:50.042Z,102002.88
2022-12-17T02:37:35.506Z,101959.63
2022-12-17T02:40:29.527Z,102007.59
2022-12-17T02:43:15.976Z,102009.75
2022-12-17T02:46:03.182Z,102014.31
2022-12-17T02:48:48.859Z,101969.59
2022-12-17T02:51:35.479Z,101998.59
2022-12-17T02:54:22.457Z,102006.03
2022-12-17T02:57:08.769Z,102004.63
2022-12-17T02:59:54.267Z,102006.16
2022-12-17T03:02:41.149Z,102013.50
2022-12-17T03:05:44.709Z,102010.69
2022-12-17T03:08:30.703Z,101973.56
2022-12-17T03:11:16.439Z,102009.34
2022-12-17T03:14:02.109Z,102004.41
2022-12-17T03:16:59.121Z,101954.84
2022-12-17T03:19:46.024Z,102005.94
2022-12-17T03:22:31.414Z,102004.97
2022-12-17T03:25:17.168Z,102012.00
2022-12-17T03:28:02.749Z,101983.34
2022-12-17T03:30:49.346Z,102017.66
2022-12-17T03:33:35.473Z,102014.94
2022-12-17T03:36:22.974Z,102010.13
2022-12-17T03:39:08.610Z,101977.09
2022-12-17T03:41:54.140Z,102005.00
2022-12-17T03:44:39.624Z,102003.09
2022-12-17T03:47:25.402Z,102009.81
2022-12-17T03:50:10.803Z,102015.44
2022-12-17T03:52:57.607Z,102014.69
2022-12-17T03:55:43.191Z,102002.91
2022-12-17T03:58:30.495Z,102012.63
2022-12-17T04:01:16.015Z,102006.59
2022-12-17T04:04:01.601Z,101997.84
2022-12-17T04:06:52.291Z,101994.19
2022-12-17T04:09:38.846Z,101990.72
2022-12-17T04:12:24.879Z,101983.06
2022-12-17T04:15:10.012Z,101985.28
2022-12-17T04:17:55.587Z,101986.78
2022-12-17T04:20:40.544Z,101994.94
2022-12-17T04:23:25.986Z,101996.97
2022-12-17T04:26:12.419Z,101992.56
2022-12-17T04:28:57.951Z,101986.59
2022-12-17T04:31:43.212Z,101984.28
2022-12-17T04:34:28.597Z,101972.09
2022-12-17T04:37:13.805Z,101959.09
2022-12-17T04:39:59.476Z,101949.72
2022-12-17T04:42:45.793Z,101917.78
2022-12-17T04:45:31.221Z,101975.38
2022-12-17T04:48:20.552Z,101979.22
2022-12-17T04:51:05.924Z,101974.34
2022-12-17T04:53:51.023Z,101945.75
2022-12-17T04:56:36.576Z,101961.78
2022-12-17T04:59:23.586Z,101964.91
2022-12-17T05:02:09.090Z,101978.13
2022-12-17T05:04:54.176Z,101918.41
2022-12-17T05:07:51.639Z,101958.13
2022-12-17T05:10:37.048Z,101964.06
2022-12-17T05:13:22.707Z,101966.94
2022-12-17T05:16:14.874Z,101958.75
2022-12-17T05:19:00.873Z,101951.59
2022-12-17T05:21:46.790Z,101952.97
2022-12-17T05:24:43.795Z,101962.72
2022-12-17T05:27:29.383Z,101959.84
2022-12-17T05:30:20.185Z,101966.09
2022-12-17T05:33:07.157Z,101961.69
2022-12-17T05:35:52.737Z,101954.06
2022-12-17T05:38:38.169Z,101902.50
2022-12-17T05:41:23.870Z,101912.56
2022-12-17T05:44:09.348Z,101969.66
2022-12-17T05:46:55.120Z,101963.06
2022-12-17T05:49:41.988Z,101952.38
2022-12-17T05:52:27.771Z,101965.91
2022-12-17T05:55:13.264Z,101969.53
2022-12-17T05:57:58.780Z,101967.75
2022-12-17T06:00:44.327Z,101968.22
2022-12-17T06:03:30.083Z,101970.16
2022-12-17T06:06:17.784Z,101966.53
2022-12-17T06:09:03.448Z,101958.25
2022-12-17T06:11:48.827Z,101974.06
2022-12-17T06:14:34.548Z,101979.00
2022-12-17T06:17:20.019Z,101977.50
2022-12-17T06:20:05.113Z,101972.88
2022-12-17T06:22:51.244Z,101961.47
2022-12-17T06:25:36.388Z,101960.72
2022-12-17T06:28:18.381Z,101939.25
2022-12-17T06:31:09.354Z,101978.88
2022-12-17T06:33:56.045Z,101986.28
2022-12-17T06:36:41.646Z,101968.56
2022-12-17T06:39:29.258Z,101986.19
2022-12-17T06:42:14.254Z,101985.72
2022-12-17T06:44:59.702Z,101985.00
2022-12-17T06:47:44.725Z,101972.50
2022-12-17T06:50:30.367Z,101987.06
2022-12-17T06:53:20.114Z,101993.97
2022-12-17T06:56:07.282Z,101990.13
2022-12-17T06:58:55.090Z,101994.78
2022-12-17T07:01:41.272Z,101994.66
2022-12-17T07:04:38.462Z,101992.53
2022-12-17T07:07:24.142Z,101998.59
2022-12-17T07:10:14.099Z,101992.09
2022-12-17T07:13:01.277Z,101993.22
2022-12-17T07:15:46.446Z,102001.66
2022-12-17T07:18:31.856Z,101989.06
2022-12-17T07:21:17.439Z,101972.00
2022-12-17T07:24:03.070Z,102000.84
2022-12-17T07:26:49.236Z,102011.22
2022-12-17T07:29:36.088Z,102014.06
2022-12-17T07:32:21.754Z,102006.63
2022-12-17T07:35:07.067Z,102020.59
2022-12-17T07:37:52.334Z,102020.69
2022-12-17T07:40:37.808Z,102019.94
2022-12-17T07:43:28.985Z,102021.88
2022-12-17T07:46:16.058Z,102021.00
2022-12-17T07:48:57.921Z,102016.50
2022-12-17T07:51:43.402Z,102008.66
2022-12-17T07:54:28.532Z,102005.34
2022-12-17T07:57:13.963Z,102004.25
2022-12-17T07:59:59.608Z,102006.06
2022-12-17T08:02:46.720Z,101945.28
2022-12-17T08:05:32.015Z,102004.03
2022-12-17T08:08:17.510Z,102001.19
2022-12-17T08:11:02.589Z,101999.03
2022-12-17T08:13:48.168Z,102004.03
2022-12-17T08:16:33.258Z,101961.84
2022-12-17T08:19:20.311Z,102009.19
2022-12-17T08:22:05.839Z,102010.47
2022-12-17T08:24:51.347Z,102003.03
2022-12-17T08:27:37.018Z,101974.44
2022-12-17T08:30:23.246Z,101950.03
2022-12-17T08:33:08.587Z,102009.59
2022-12-17T08:35:55.727Z,102007.41
2022-12-17T08:38:41.295Z,102011.13
2022-12-17T08:41:27.007Z,102012.91
2022-12-17T08:44:24.052Z,102014.66
2022-12-17T08:47:09.517Z,101950.59
2022-12-17T08:49:54.839Z,102014.44
2022-12-17T08:52:41.863Z,102009.63
2022-12-17T08:55:27.913Z,102007.50
2022-12-17T08:58:13.943Z,102014.41
2022-12-17T09:00:59.454Z,102023.03
2022-12-17T09:03:44.964Z,102014.91
2022-12-17T09:06:34.620Z,102020.09
2022-12-17T09:09:24.509Z,102022.41
2022-12-17T09:12:09.713Z,102012.16
2022-12-17T09:14:55.128Z,102009.16
2022-12-17T09:17:40.476Z,102010.28
2022-12-17T09:20:37.831Z,102005.56
2022-12-17T09:23:23.404Z,101999.59
2022-12-17T09:26:13.232Z,101991.22
2022-12-17T09:28:58.741Z,101919.47
2022-12-17T09:31:44.736Z,101983.94
2022-12-17T09:34:29.786Z,101982.09
2022-12-17T09:37:15.422Z,101958.25
2022-12-17T09:40:00.503Z,101940.38
2022-12-17T09:42:58.243Z,101980.81
2022-12-17T09:45:53.636Z,101963.00
2022-12-17T09:48:46.527Z,101963.44
2022-12-17T09:51:41.755Z,101971.72
2022-12-17T09:54:38.398Z,101973.69
2022-12-17T09:57:25.104Z,101975.78
2022-12-17T10:00:11.830Z,101979.00
2022-12-17T10:02:57.484Z,101920.16
2022-12-17T10:05:45.699Z,101979.94
2022-12-17T10:08:34.851Z,101970.50
2022-12-17T10:11:34.484Z,101970.63
2022-12-17T10:14:21.335Z,101963.88
2022-12-17T10:17:11.927Z,101965.47
2022-12-17T10:20:00.320Z,101968.75
2022-12-17T10:22:45.935Z,101928.44
2022-12-17T10:25:34.717Z,101962.13
2022-12-17T10:28:23.259Z,101957.22
2022-12-17T10:31:08.321Z,101954.97
2022-12-17T10:33:58.896Z,101929.28
2022-12-17T10:36:45.067Z,101959.34
2022-12-17T10:39:54.481Z,101953.38
2022-12-17T10:42:42.124Z,101953.28
2022-12-17T10:45:39.143Z,101927.97
2022-12-17T10:48:36.546Z,101942.31
2022-12-17T10:51:24.771Z,101944.38
2022-12-17T10:54:11.428Z,101947.06
2022-12-17T10:56:57.940Z,101954.03
2022-12-17T10:59:50.180Z,101901.75
2022-12-17T11:02:41.418Z,101956.72
2022-12-17T11:05:32.684Z,101957.56
2022-12-17T11:08:21.356Z,101942.94
2022-12-17T11:11:07.712Z,101956.03
2022-12-17T11:13:58.863Z,101945.69
2022-12-17T11:16:48.402Z,101956.75
2022-12-17T11:19:47.930Z,101910.53
2022-12-17T11:22:43.700Z,101949.00
2022-12-17T11:25:50.061Z,101944.50
2022-12-17T11:28:44.644Z,101941.97
2022-12-17T11:31:45.835Z,101940.28
2022-12-17T11:34:38.259Z,101926.59
2022-12-17T11:37:32.283Z,101933.50
2022-12-17T11:40:28.863Z,101895.78
2022-12-17T11:43:21.231Z,101916.25
2022-12-17T11:46:18.653Z,101914.84
2022-12-17T11:49:09.993Z,101852.25
2022-12-17T11:52:03.227Z,101900.47
2022-12-17T11:54:57.999Z,101899.69
2022-12-17T11:57:50.271Z,101906.56
2022-12-17T12:00:39.297Z,101851.00
2022-12-17T12:03:41.792Z,101899.78
2022-12-17T12:06:36.112Z,101854.47
2022-12-17T12:09:29.843Z,101909.97
2022-12-17T12:12:24.225Z,101833.69
2022-12-17T12:15:19.459Z,101913.44
2022-12-17T12:18:15.548Z,101923.00
2022-12-17T12:21:18.492Z,101851.31
2022-12-17T12:24:17.952Z,101891.44
2022-12-17T12:27:15.343Z,101902.69
2022-12-17T12:30:09.399Z,101902.94
2022-12-17T12:33:09.758Z,101909.56
2022-12-17T12:35:57.585Z,101906.13
2022-12-17T12:39:01.452Z,101912.16
2022-12-17T12:41:56.810Z,101912.25
2022-12-17T12:44:51.538Z,101868.66
2022-12-17T12:47:44.264Z,101899.16
2022-12-17T12:50:39.085Z,101900.78
2022-12-17T12:53:29.961Z,101891.44
2022-12-17T12:56:15.501Z,101890.72
2022-12-17T12:59:01.144Z,101861.81
2022-12-17T13:01:55.095Z,101854.97
2022-12-17T13:04:50.714Z,101861.72
2022-12-17T13:07:24.155Z,101834.31
2022-12-17T13:09:55.403Z,101874.25
2022-12-17T13:12:32.021Z,101861.63
2022-12-17T13:15:26.850Z,101853.16
2022-12-17T13:18:03.571Z,101869.41
2022-12-17T13:20:33.920Z,101898.34
2022-12-17T13:23:28.002Z,101891.56
2022-12-17T13:26:25.265Z,101879.91
2022-12-17T13:29:11.460Z,101835.19
2022-12-17T13:31:56.724Z,101867.59
2022-12-17T13:34:30.274Z,101882.00
2022-12-17T13:37:04.043Z,101870.06
2022-12-17T13:39:41.596Z,101881.00
2022-12-17T13:42:20.481Z,101886.41
2022-12-17T13:44:48.807Z,101859.31
2022-12-17T13:47:22.956Z,101884.06
2022-12-17T13:50:31.839Z,101863.78
2022-12-17T13:52:42.743Z,101894.66
2022-12-17T13:55:17.752Z,101899.75
2022-12-17T13:57:48.839Z,101894.34
2022-12-17T14:00:22.936Z,101891.59
2022-12-17T14:02:51.480Z,101894.19
2022-12-17T14:05:27.433Z,101891.47
2022-12-17T14:07:57.143Z,101884.19
2022-12-17T14:10:26.233Z,101853.72
2022-12-17T14:13:04.276Z,101870.91
2022-12-17T14:15:33.344Z,101892.16
2022-12-17T14:18:02.561Z,101829.44
2022-12-17T14:20:32.923Z,101873.53
2022-12-17T14:23:03.249Z,101868.28
2022-12-17T14:25:35.594Z,101872.28
2022-12-17T14:28:07.447Z,101847.50
2022-12-17T14:30:46.332Z,101862.13
2022-12-17T14:33:30.759Z,101867.94
2022-12-17T14:36:00.880Z,101831.34
2022-12-17T14:38:48.457Z,101812.69
2022-12-17T14:41:34.684Z,101866.69
2022-12-17T14:44:05.056Z,101867.28
2022-12-17T14:46:34.594Z,101842.75
2022-12-17T14:49:05.970Z,101874.41
2022-12-17T14:51:37.410Z,101837.69
2022-12-17T14:54:29.246Z,101889.19
2022-12-17T14:56:58.873Z,101883.72
2022-12-17T14:59:33.059Z,101883.03
2022-12-17T15:02:04.418Z,101891.28
2022-12-17T15:04:33.808Z,101889.56
2022-12-17T15:07:02.010Z,101844.03
2022-12-17T15:09:30.034Z,101888.44
2022-12-17T15:11:58.184Z,101882.13
2022-12-17T15:14:26.027Z,101879.59
2022-12-17T15:16:56.024Z,101872.31
2022-12-17T15:19:24.267Z,101874.53
2022-12-17T15:21:52.217Z,101826.28
2022-12-17T15:24:22.100Z,101848.19
2022-12-17T15:26:50.867Z,101866.88
2022-12-17T15:29:18.735Z,101876.91
2022-12-17T15:31:46.780Z,101855.69
2022-12-17T15:34:17.564Z,101891.81
2022-12-17T15:36:45.420Z,101890.97
2022-12-17T15:39:13.443Z,101862.22
2022-12-17T15:41:59.211Z,101894.81
2022-12-17T15:44:27.247Z,101843.69
2022-12-17T15:46:55.239Z,101844.94
2022-12-17T15:49:24.564Z,101887.13
2022-12-17T15:51:52.421Z,101853.72
2022-12-17T15:54:20.446Z,101900.84
2022-12-17T15:56:53.775Z,101852.88
2022-12-17T15:59:22.232Z,101869.16
2022-12-17T16:01:50.218Z,101844.59
2022-12-17T16:04:24.708Z,101890.97
2022-12-17T16:06:54.999Z,101892.28
2022-12-17T16:09:24.640Z,101817.94
2022-12-17T16:11:54.621Z,101885.84
2022-12-17T16:14:22.581Z,101835.31
2022-12-17T16:16:50.891Z,101897.78
2022-12-17T16:19:19.376Z,101850.69
2022-12-17T16:21:47.509Z,101815.69
2022-12-17T16:24:16.953Z,101890.00
2022-12-17T16:26:44.816Z,101894.94
2022-12-17T16:29:12.922Z,101879.56
2022-12-17T16:31:40.946Z,101897.69
2022-12-17T16:34:09.842Z,101896.66
2022-12-17T16:36:37.930Z,101896.47
2022-12-17T16:39:06.732Z,101865.59
2022-12-17T16:41:36.036Z,101913.75
2022-12-17T16:44:04.667Z,101916.41
2022-12-17T16:46:34.720Z,101906.03
2022-12-17T16:49:07.195Z,101913.25
2022-12-17T16:51:35.427Z,101878.56
2022-12-17T16:54:06.262Z,101921.78
2022-12-17T16:56:40.066Z,101923.75
2022-12-17T16:59:09.115Z,101917.91
2022-12-17T17:01:38.392Z,101919.66
2022-12-17T17:04:08.260Z,101879.25
2022-12-17T17:06:40.211Z,101862.38
2022-12-17T17:09:08.881Z,101872.31
2022-12-17T17:11:38.360Z,101862.94
2022-12-17T17:14:07.488Z,101931.59
2022-12-17T17:16:36.039Z,101930.53
2022-12-17T17:19:04.749Z,101912.38
2022-12-17T17:21:34.513Z,101939.22
2022-12-17T17:24:05.053Z,101940.56
2022-12-17T17:26:35.331Z,101945.91
2022-12-17T17:29:06.250Z,101903.56
2022-12-17T17:32:08.379Z,101949.25
2022-12-17T17:34:23.555Z,101957.13
2022-12-17T17:36:51.480Z,101953.72
2022-12-17T17:39:19.431Z,101955.03
2022-12-17T17:41:47.635Z,101962.75
2022-12-17T17:44:17.582Z,101959.59
2022-12-17T17:46:45.570Z,101971.31
2022-12-17T17:49:13.548Z,101976.44
2022-12-17T17:54:32.044Z,101964.31
2022-12-17T17:57:00.090Z,101957.78
2022-12-17T17:59:33.201Z,101956.94
2022-12-17T18:02:02.656Z,101960.28
2022-12-17T18:04:31.098Z,101954.75
2022-12-17T18:09:47.383Z,101944.44
2022-12-17T18:12:32.522Z,101954.91
2022-12-17T18:15:18.617Z,101955.09
2022-12-17T18:17:48.503Z,101951.69
2022-12-17T18:20:17.849Z,101957.91
2022-12-17T18:22:46.767Z,101960.41
2022-12-17T18:25:15.333Z,101956.22
2022-12-17T18:27:43.428Z,101944.91
2022-12-17T18:30:14.136Z,101947.50
2022-12-17T18:32:42.005Z,101957.22
2022-12-17T18:35:10.720Z,101952.75
2022-12-17T18:37:38.960Z,101952.03
2022-12-17T18:40:08.301Z,101951.13
2022-12-17T18:42:53.879Z,101955.38
2022-12-17T18:45:23.308Z,101955.63
2022-12-17T18:47:51.844Z,101956.25
2022-12-17T18:50:19.985Z,101953.28
2022-12-17T18:52:48.023Z,101963.72
2022-12-17T18:55:16.382Z,101957.63
2022-12-17T18:57:44.392Z,101926.25
2022-12-17T19:00:14.017Z,101898.09
2022-12-17T19:02:44.267Z,101897.81
2022-12-17T19:05:12.449Z,101960.72
2022-12-17T19:07:40.416Z,101964.06
2022-12-17T19:10:09.086Z,101957.13
2022-12-17T19:12:37.019Z,101960.75
2022-12-17T19:15:05.484Z,101966.66
2022-12-17T19:17:33.347Z,101912.13
2022-12-17T19:20:02.671Z,101974.34
2022-12-17T19:22:30.689Z,101920.25
2022-12-17T19:24:58.557Z,101971.91
2022-12-17T19:27:26.535Z,101970.41
2022-12-17T19:29:56.467Z,101975.41
2022-12-17T19:32:24.883Z,101938.63
2022-12-17T19:34:52.957Z,101948.22
2022-12-17T19:37:22.308Z,101971.41
2022-12-17T19:39:50.281Z,101974.91
2022-12-17T19:42:25.609Z,101920.19
2022-12-17T19:44:55.016Z,101964.69
2022-12-17T19:47:23.783Z,101966.31
2022-12-17T19:49:52.087Z,101907.78
2022-12-17T19:52:20.142Z,101964.41
2022-12-17T19:54:49.793Z,101956.16
2022-12-17T19:57:17.782Z,101964.63
2022-12-17T19:59:45.817Z,101964.66
2022-12-17T20:02:15.690Z,101974.69
2022-12-17T20:04:43.841Z,101977.38
2022-12-17T20:07:11.750Z,101971.38
2022-12-17T20:09:40.467Z,101980.84
2022-12-17T20:12:09.917Z,101981.41
2022-12-17T20:14:37.874Z,101990.88
2022-12-17T20:17:06.645Z,101990.78
2022-12-17T20:19:35.291Z,101936.81
2022-12-17T20:22:05.458Z,101994.22
2022-12-17T20:24:33.880Z,101992.53
2022-12-17T20:27:02.752Z,101960.06
2022-12-17T20:29:32.018Z,101990.13
2022-12-17T20:32:00.234Z,101978.84
2022-12-17T20:34:28.290Z,101972.84
2022-12-17T20:36:56.204Z,101923.16
2022-12-17T20:39:27.750Z,101986.66
2022-12-17T20:41:56.832Z,101936.13
2022-12-17T20:44:24.879Z,101994.38
2022-12-17T20:46:54.353Z,101991.88
2022-12-17T20:49:22.732Z,101994.59
2022-12-17T20:51:50.610Z,101986.78
2022-12-17T20:54:18.614Z,101955.22
2022-12-17T20:56:46.729Z,101985.94
2022-12-17T20:59:16.757Z,101981.81
2022-12-17T21:01:45.612Z,101987.84
2022-12-17T21:04:15.993Z,101985.94
2022-12-17T21:06:45.177Z,101991.75
2022-12-17T21:09:14.488Z,101960.16
2022-12-17T21:11:43.253Z,101985.25
2022-12-17T21:14:13.535Z,101976.66
2022-12-17T21:16:42.032Z,101989.56
2022-12-17T21:19:12.425Z,101935.69
2022-12-17T21:21:41.715Z,101995.66
2022-12-17T21:24:10.626Z,101996.63
2022-12-17T21:26:40.431Z,102005.03
2022-12-17T21:29:10.160Z,101968.13
2022-12-17T21:31:40.655Z,101928.28
2022-12-17T21:34:13.428Z,102002.44
2022-12-17T21:36:43.397Z,101995.50
2022-12-17T21:39:13.645Z,101964.66
2022-12-17T21:41:45.077Z,102001.72
2022-12-17T21:44:15.479Z,101949.06
2022-12-17T21:46:43.548Z,102001.84
2022-12-17T21:49:14.444Z,101986.88
2022-12-17T21:51:44.129Z,102004.09
2022-12-17T21:54:17.286Z,102016.06
2022-12-17T21:56:47.583Z,101993.06
2022-12-17T21:59:15.616Z,102017.66
2022-12-17T22:01:43.636Z,102012.59
2022-12-17T22:04:11.916Z,101973.34
2022-12-17T22:06:45.561Z,101969.03
2022-12-17T22:09:39.703Z,102015.50
2022-12-17T22:12:27.799Z,102004.59
2022-12-17T22:14:55.880Z,101963.94
2022-12-17T22:17:24.244Z,102013.63
2022-12-17T22:19:52.123Z,102018.72
2022-12-17T22:22:20.159Z,102017.53
2022-12-17T22:24:49.409Z,101997.22
2022-12-17T22:27:17.382Z,102000.72
2022-12-17T22:30:03.183Z,102020.44
2022-12-17T22:32:48.317Z,102025.00
2022-12-17T22:37:23.160Z,101981.81
2022-12-17T22:40:31.280Z,102012.81
2022-12-17T22:44:34.650Z,102019.09
2022-12-17T22:44:42.339Z,101959.03
2022-12-17T22:46:32.888Z,102013.72
2022-12-17T22:49:00.848Z,102018.28
2022-12-17T22:51:36.390Z,101982.94
2022-12-17T22:54:07.432Z,102013.91
2022-12-17T22:57:11.799Z,102022.47
2022-12-17T22:59:26.085Z,102018.38
2022-12-17T23:01:54.074Z,102016.84
2022-12-17T23:04:22.047Z,102003.78
2022-12-17T23:06:50.176Z,102015.13
2022-12-17T23:09:20.199Z,102017.66
2022-12-17T23:11:50.031Z,102005.81
2022-12-17T23:14:18.797Z,102010.91
2022-12-17T23:16:46.795Z,102008.59
2022-12-17T23:19:14.883Z,102003.34
2022-12-17T23:21:42.942Z,101944.28
2022-12-17T23:24:10.951Z,101991.81
2022-12-17T23:26:39.922Z,101986.66
2022-12-17T23:29:19.024Z,101990.94
2022-12-17T23:31:48.366Z,101991.56
2022-12-17T23:34:16.776Z,101984.03
2022-12-17T23:36:44.641Z,101941.41
2022-12-17T23:39:12.852Z,101993.53
2022-12-17T23:41:40.879Z,101987.50
2022-12-17T23:44:10.151Z,101993.72
2022-12-17T23:46:38.248Z,101984.91
2022-12-17T23:49:07.177Z,101986.84
2022-12-17T23:51:35.437Z,101936.34
2022-12-17T23:54:03.529Z,101925.03
2022-12-17T23:56:31.527Z,101996.19
2022-12-17T23:59:01.718Z,102000.78
